CYNL

METAR CYNL 160800Z AUTO 13007KT 9SM OVC092 M21/M24 A2964 RMK AO1 SLP113
METAR
LOCATION
CYNL
DATE - TIME
160800Z
WIND
130 TRUE @ 7 KNOTS
VISIBILITY
9SM
RUNWAY VISUAL RANGE
NOT REPORTED
WEATHER
CLOUDINESS
OVC092
TEMP / DEWPOINT
-21 ºC / -24 ºC
ALTIMETER
29.64 in. Hg
RECENT WEATHER
NOT REPORTED
WIND SHEAR
NOT REPORTED
REMARKS
RMK AO1 SLP113
SEA LEVEL PRESSURE: hPa

CYNL

METAR CYNL 160700Z AUTO 13008KT 9SM OVC092 M21/M24 A2964 RMK AO1 SLP113
METAR
LOCATION
CYNL
DATE - TIME
160700Z
WIND
130 TRUE @ 8 KNOTS
VISIBILITY
9SM
RUNWAY VISUAL RANGE
NOT REPORTED
WEATHER
CLOUDINESS
OVC092
TEMP / DEWPOINT
-21 ºC / -24 ºC
ALTIMETER
29.64 in. Hg
RECENT WEATHER
NOT REPORTED
WIND SHEAR
NOT REPORTED
REMARKS
RMK AO1 SLP113
SEA LEVEL PRESSURE: hPa

CYNL

METAR CYNL 160600Z AUTO 14009KT 9SM FEW004 M22/M25 A2963 RMK AO1 SLP111
METAR
LOCATION
CYNL
DATE - TIME
160600Z
WIND
140 TRUE @ 9 KNOTS
VISIBILITY
9SM
RUNWAY VISUAL RANGE
NOT REPORTED
WEATHER
CLOUDINESS
FEW004
TEMP / DEWPOINT
-22 ºC / -25 ºC
ALTIMETER
29.63 in. Hg
RECENT WEATHER
NOT REPORTED
WIND SHEAR
NOT REPORTED
REMARKS
RMK AO1 SLP111
SEA LEVEL PRESSURE: hPa

Your time UTC time
 
 
Weather data provided by AXYS Technologies Inc., www.axystechnologies.com
 
Station History